Time;durP1;ratioP1;P1;durP2;ratioP2;P2;SDS_P1;SDS_P2;PMS_P1;PMS_P2;Temp;Humidity;BMP_temperature;BMP_pressure;BME280_temperature;BME280_humidity;BME280_pressure;Samples;Min_cycle;Max_cycle;Signal;HPM_P1;HPM_P2
2023/12/03 00:00:14;;;;;;;10.23;5.47;;;;;;;-1.17;100.00;96552.47;5078309;28;20577;-70
2023/12/03 00:02:43;;;;;;;14.13;6.70;;;;;;;-1.17;100.00;96562.81;5078437;28;20577;-70
2023/12/03 00:05:10;;;;;;;13.47;5.83;;;;;;;-1.43;100.00;96568.00;5077793;28;20254;-71
2023/12/03 00:07:37;;;;;;;15.10;6.73;;;;;;;-1.48;100.00;96564.88;5078516;28;20230;-70
2023/12/03 00:10:04;;;;;;;14.00;6.60;;;;;;;-1.50;100.00;96568.47;5077865;28;20249;-70
2023/12/03 00:12:30;;;;;;;11.97;5.77;;;;;;;-1.61;100.00;96566.56;5078684;28;20208;-70
2023/12/03 00:14:57;;;;;;;12.00;6.30;;;;;;;-1.65;100.00;96565.09;5078629;28;20213;-69
2023/12/03 00:17:24;;;;;;;10.43;5.63;;;;;;;-2.01;100.00;96561.41;5078403;28;20201;-70
2023/12/03 00:19:52;;;;;;;13.93;5.77;;;;;;;-2.05;100.00;96562.53;5077453;28;20229;-70
2023/12/03 00:22:19;;;;;;;18.67;7.20;;;;;;;-2.02;100.00;96564.91;5078377;28;20210;-70
2023/12/03 00:24:46;;;;;;;10.37;5.60;;;;;;;-1.99;100.00;96574.22;5079005;28;20979;-69
2023/12/03 00:27:12;;;;;;;17.60;7.00;;;;;;;-1.93;100.00;96574.66;5077189;28;20308;-70
2023/12/03 00:29:39;;;;;;;14.73;6.70;;;;;;;-2.07;100.00;96569.53;5078071;28;20237;-70
2023/12/03 00:32:06;;;;;;;14.90;6.43;;;;;;;-2.16;100.00;96569.25;5078685;28;20210;-70
2023/12/03 00:34:32;;;;;;;18.03;6.87;;;;;;;-2.15;100.00;96569.16;5077662;28;20866;-70
2023/12/03 00:37:00;;;;;;;12.93;6.67;;;;;;;-2.05;100.00;96570.28;5077112;28;20244;-70
2023/12/03 00:39:27;;;;;;;13.93;6.13;;;;;;;-2.31;100.00;96572.75;5078577;28;20218;-70
2023/12/03 00:41:53;;;;;;;13.47;6.50;;;;;;;-2.25;100.00;96568.06;5077251;28;20206;-70
2023/12/03 00:44:20;;;;;;;13.60;7.17;;;;;;;-2.26;100.00;96576.72;5077340;28;20200;-70
2023/12/03 00:46:46;;;;;;;16.63;6.10;;;;;;;-2.20;100.00;96576.34;5077694;28;20214;-70
2023/12/03 00:49:13;;;;;;;14.73;6.47;;;;;;;-2.22;100.00;96578.19;5076965;28;20225;-70
2023/12/03 00:51:39;;;;;;;11.83;5.97;;;;;;;-2.35;100.00;96590.16;5077391;28;20606;-70
2023/12/03 00:54:07;;;;;;;14.83;6.13;;;;;;;-2.19;100.00;96588.34;5078232;28;20207;-70
2023/12/03 00:56:33;;;;;;;12.93;6.50;;;;;;;-2.32;100.00;96594.31;5076998;28;20761;-70
2023/12/03 00:59:00;;;;;;;16.23;6.77;;;;;;;-2.14;100.00;96588.91;5076512;28;20227;-70
2023/12/03 01:01:26;;;;;;;14.20;6.67;;;;;;;-2.15;100.00;96600.13;5077670;28;20227;-69
2023/12/03 01:03:53;;;;;;;12.90;6.33;;;;;;;-2.36;100.00;96605.75;5077743;28;20215;-70
2023/12/03 01:06:19;;;;;;;12.83;6.20;;;;;;;-2.41;100.00;96608.59;5076826;28;20207;-70
2023/12/03 01:08:46;;;;;;;12.63;6.57;;;;;;;-2.41;100.00;96613.78;5076372;28;20714;-70
2023/12/03 01:11:14;;;;;;;12.43;6.27;;;;;;;-2.26;100.00;96612.84;5077658;28;20659;-70
2023/12/03 01:13:40;;;;;;;14.97;6.17;;;;;;;-2.29;100.00;96609.59;5077412;28;20212;-70
2023/12/03 01:16:14;;;;;;;15.40;6.87;;;;;;;-2.08;100.00;96606.56;5076854;28;20212;-70
2023/12/03 01:18:41;;;;;;;11.17;5.80;;;;;;;-2.25;100.00;96613.69;5077040;28;20226;-71
2023/12/03 01:21:07;;;;;;;11.07;6.40;;;;;;;-2.24;100.00;96621.34;5076349;28;20881;-70
2023/12/03 01:23:34;;;;;;;14.17;5.87;;;;;;;-2.20;100.00;96615.06;5076986;28;20693;-70
2023/12/03 01:26:01;;;;;;;17.00;6.83;;;;;;;-2.05;100.00;96621.91;5077588;28;20197;-70
2023/12/03 01:28:28;;;;;;;16.07;6.90;;;;;;;-1.94;100.00;96618.66;5075811;28;20229;-70
2023/12/03 01:30:55;;;;;;;14.83;6.87;;;;;;;-2.04;100.00;96623.53;5076653;28;20251;-69
2023/12/03 01:33:21;;;;;;;15.07;6.90;;;;;;;-2.01;100.00;96631.13;5077056;28;20210;-70
2023/12/03 01:35:48;;;;;;;16.03;7.40;;;;;;;-2.29;100.00;96633.69;5077390;28;20215;-70
2023/12/03 01:38:14;;;;;;;13.93;6.80;;;;;;;-2.03;100.00;96640.69;5075803;28;20200;-71
2023/12/03 01:40:51;;;;;;;13.70;6.63;;;;;;;-1.87;100.00;96640.59;5077239;28;20232;-70
2023/12/03 01:43:17;;;;;;;21.27;8.57;;;;;;;-1.75;100.00;96640.69;5076428;28;20215;-71
2023/12/03 01:45:46;;;;;;;16.47;7.23;;;;;;;-1.61;100.00;96643.25;5076806;28;20201;-70
2023/12/03 01:48:13;;;;;;;15.77;6.60;;;;;;;-1.80;100.00;96643.53;5075385;28;20221;-70
2023/12/03 01:50:40;;;;;;;15.13;5.93;;;;;;;-1.83;100.00;96644.66;5077646;28;20200;-70
2023/12/03 01:53:07;;;;;;;18.07;6.87;;;;;;;-1.83;100.00;96648.91;5075631;28;20342;-70
2023/12/03 01:55:35;;;;;;;16.80;6.93;;;;;;;-1.74;100.00;96642.34;5076113;28;20668;-70
2023/12/03 01:58:01;;;;;;;14.50;6.80;;;;;;;-1.77;100.00;96647.69;5075715;28;20287;-71
2023/12/03 02:00:28;;;;;;;12.20;6.13;;;;;;;-1.63;100.00;96650.25;5076566;28;20226;-70
2023/12/03 02:02:56;;;;;;;16.97;7.37;;;;;;;-1.53;100.00;96656.53;5075589;28;20710;-70
2023/12/03 02:05:23;;;;;;;11.80;5.17;;;;;;;-1.63;100.00;96658.00;5076452;28;20206;-69
2023/12/03 02:07:49;;;;;;;15.10;6.50;;;;;;;-1.68;100.00;96653.13;5076184;28;20206;-70
2023/12/03 02:10:16;;;;;;;15.70;6.07;;;;;;;-1.68;100.00;96660.03;5075632;28;20226;-70
2023/12/03 02:12:42;;;;;;;14.83;5.80;;;;;;;-1.66;100.00;96666.78;5076233;28;20200;-70
2023/12/03 02:15:09;;;;;;;14.77;6.57;;;;;;;-1.64;100.00;96667.53;5076265;28;20209;-71
2023/12/03 02:17:36;;;;;;;14.63;7.27;;;;;;;-1.63;100.00;96666.59;5075857;28;20431;-70
2023/12/03 02:20:05;;;;;;;13.30;6.17;;;;;;;-1.54;100.00;96665.19;5075422;28;20736;-70
2023/12/03 02:22:31;;;;;;;14.93;6.73;;;;;;;-1.72;100.00;96666.31;5074923;28;20680;-70
2023/12/03 02:24:59;;;;;;;15.30;6.23;;;;;;;-1.62;100.00;96664.84;5075629;28;20677;-70
2023/12/03 02:27:26;;;;;;;15.97;6.27;;;;;;;-1.68;100.00;96662.63;5075563;28;20208;-69
2023/12/03 02:29:52;;;;;;;16.83;7.53;;;;;;;-1.64;100.00;96675.28;5076223;28;20240;-69
2023/12/03 02:32:19;;;;;;;14.53;6.83;;;;;;;-1.59;100.00;96669.81;5075542;28;20213;-69
2023/12/03 02:34:45;;;;;;;16.10;7.87;;;;;;;-1.53;100.00;96666.84;5076059;28;20202;-70
2023/12/03 02:37:11;;;;;;;16.87;7.70;;;;;;;-1.54;100.00;96670.34;5075609;28;20208;-69
2023/12/03 02:39:38;;;;;;;19.03;7.00;;;;;;;-1.75;100.00;96669.91;5075606;28;20225;-70
2023/12/03 02:42:06;;;;;;;17.57;7.23;;;;;;;-1.47;100.00;96671.66;5075735;28;20201;-70
2023/12/03 02:44:32;;;;;;;14.40;7.37;;;;;;;-1.72;100.00;96669.75;5075487;28;20299;-70
2023/12/03 02:46:59;;;;;;;16.57;7.53;;;;;;;-1.75;100.00;96664.75;5076291;28;20210;-70
2023/12/03 02:49:25;;;;;;;15.70;6.77;;;;;;;-1.68;100.00;96666.03;5075254;28;20236;-70
2023/12/03 02:51:52;;;;;;;16.97;8.20;;;;;;;-1.83;100.00;96668.75;5075339;28;20682;-70
2023/12/03 02:54:18;;;;;;;15.67;7.30;;;;;;;-1.83;100.00;96668.75;5074897;28;21521;-71
2023/12/03 02:56:45;;;;;;;14.33;6.77;;;;;;;-1.80;100.00;96673.69;5076510;28;20214;-70
2023/12/03 02:59:13;;;;;;;18.00;7.57;;;;;;;-1.69;100.00;96663.56;5074789;28;20241;-71
2023/12/03 03:01:40;;;;;;;16.57;7.17;;;;;;;-2.01;100.00;96669.00;5075622;28;20695;-71
2023/12/03 03:04:06;;;;;;;13.40;6.63;;;;;;;-2.18;100.00;96671.75;5074971;28;20202;-70
2023/12/03 03:06:32;;;;;;;16.83;7.63;;;;;;;-2.21;100.00;96671.94;5075057;28;20219;-70
2023/12/03 03:08:59;;;;;;;15.03;7.00;;;;;;;-2.17;100.00;96684.56;5075078;28;20228;-71
2023/12/03 03:11:25;;;;;;;17.83;7.47;;;;;;;-2.16;100.00;96678.47;5075732;28;20209;-71
2023/12/03 03:13:52;;;;;;;16.90;6.90;;;;;;;-2.16;100.00;96681.06;5075289;28;20206;-71
2023/12/03 03:16:20;;;;;;;17.80;7.63;;;;;;;-2.20;100.00;96678.75;5074630;28;20221;-70
2023/12/03 03:18:46;;;;;;;15.73;7.90;;;;;;;-2.36;100.00;96681.38;5075403;28;20228;-70
2023/12/03 03:21:13;;;;;;;15.30;6.80;;;;;;;-2.42;100.00;96686.06;5074387;28;20203;-70
2023/12/03 03:23:39;;;;;;;13.93;5.87;;;;;;;-2.32;100.00;96685.47;5075188;28;20212;-70
2023/12/03 03:26:06;;;;;;;16.00;7.37;;;;;;;-2.45;100.00;96682.88;5074722;28;20208;-70
2023/12/03 03:28:32;;;;;;;14.60;7.23;;;;;;;-2.60;100.00;96694.06;5075069;28;20232;-70
2023/12/03 03:30:59;;;;;;;14.70;6.60;;;;;;;-2.50;100.00;96696.00;5077032;28;20205;-71
2023/12/03 03:33:27;;;;;;;18.83;7.50;;;;;;;-2.42;100.00;96692.09;5079192;28;20253;-70
2023/12/03 03:35:53;;;;;;;17.70;7.83;;;;;;;-2.49;100.00;96702.03;5078797;28;20218;-70
2023/12/03 03:38:20;;;;;;;16.20;7.03;;;;;;;-2.55;100.00;96697.19;5078936;28;20209;-70
2023/12/03 03:40:46;;;;;;;15.67;7.63;;;;;;;-2.54;100.00;96704.03;5079128;28;20652;-71
2023/12/03 03:43:13;;;;;;;18.70;8.27;;;;;;;-2.58;100.00;96702.53;5078760;28;20278;-70
2023/12/03 03:45:40;;;;;;;18.60;7.97;;;;;;;-2.60;100.00;96702.59;5079386;28;20300;-71
2023/12/03 03:48:06;;;;;;;16.93;7.37;;;;;;;-2.67;100.00;96708.19;5077988;28;21187;-70
2023/12/03 03:50:34;;;;;;;16.93;7.07;;;;;;;-2.46;100.00;96722.47;5077972;28;20980;-71
2023/12/03 03:53:01;;;;;;;18.03;7.93;;;;;;;-2.85;100.00;96716.97;5079134;28;20199;-71
2023/12/03 03:55:27;;;;;;;13.87;6.57;;;;;;;-2.93;100.00;96717.41;5079415;28;20200;-70
2023/12/03 03:57:54;;;;;;;17.63;8.27;;;;;;;-2.81;100.00;96727.03;5077589;28;20208;-70
2023/12/03 04:00:20;;;;;;;16.00;8.10;;;;;;;-2.86;100.00;96728.22;5077181;28;20609;-70
2023/12/03 04:02:47;;;;;;;16.53;7.50;;;;;;;-2.96;100.00;96732.22;5079060;28;20200;-70
2023/12/03 04:05:13;;;;;;;15.60;7.60;;;;;;;-2.87;100.00;96732.53;5077807;28;21105;-70
2023/12/03 04:07:41;;;;;;;17.57;8.23;;;;;;;-2.54;100.00;96729.81;5078268;28;20212;-71
2023/12/03 04:10:10;;;;;;;19.67;8.37;;;;;;;-2.65;100.00;96729.59;5078501;28;20219;-70
2023/12/03 04:12:36;;;;;;;15.80;7.57;;;;;;;-2.64;100.00;96736.41;5078397;28;20232;-70
2023/12/03 04:15:04;;;;;;;16.57;7.53;;;;;;;-2.58;100.00;96733.47;5077743;28;20282;-71
2023/12/03 04:17:31;;;;;;;16.70;7.53;;;;;;;-2.51;100.00;96729.63;5077901;28;20776;-70
2023/12/03 04:19:57;;;;;;;15.53;6.97;;;;;;;-2.48;100.00;96729.47;5078503;28;20312;-70
2023/12/03 04:22:24;;;;;;;15.00;7.07;;;;;;;-2.50;100.00;96731.31;5077680;28;20205;-71
2023/12/03 04:24:52;;;;;;;17.00;8.10;;;;;;;-2.29;100.00;96731.75;5078287;28;20201;-71
2023/12/03 04:27:18;;;;;;;16.43;7.77;;;;;;;-2.39;100.00;96725.44;5077138;28;20208;-71
2023/12/03 04:29:45;;;;;;;18.93;7.63;;;;;;;-2.36;100.00;96729.59;5078053;28;20232;-70
2023/12/03 04:32:11;;;;;;;18.27;7.80;;;;;;;-2.31;100.00;96733.56;5077953;28;20223;-71
2023/12/03 04:34:39;;;;;;;17.70;8.23;;;;;;;-2.01;100.00;96731.81;5078326;28;20864;-71
2023/12/03 04:37:06;;;;;;;19.67;8.33;;;;;;;-2.11;100.00;96720.34;5077099;28;20673;-70
2023/12/03 04:39:32;;;;;;;16.50;7.50;;;;;;;-2.00;100.00;96717.94;5079026;28;20224;-71
2023/12/03 04:42:00;;;;;;;17.33;7.77;;;;;;;-1.84;100.00;96723.88;5078011;28;20204;-71
2023/12/03 04:44:27;;;;;;;16.80;7.20;;;;;;;-2.11;100.00;96728.09;5079685;28;20645;-71
2023/12/03 04:46:53;;;;;;;38.03;12.57;;;;;;;-2.13;100.00;96729.09;5079070;28;20820;-71
2023/12/03 04:49:20;;;;;;;19.57;8.67;;;;;;;-2.06;100.00;96725.22;5079024;28;20702;-71
2023/12/03 04:51:46;;;;;;;15.70;7.47;;;;;;;-2.10;100.00;96732.34;5079032;28;20201;-71
2023/12/03 04:54:13;;;;;;;16.30;7.07;;;;;;;-2.03;100.00;96733.63;5076778;28;20210;-70
2023/12/03 04:56:39;;;;;;;19.23;10.23;;;;;;;-2.08;100.00;96738.22;5077938;28;20223;-70
2023/12/03 04:59:07;;;;;;;18.37;7.70;;;;;;;-2.02;100.00;96740.47;5076522;28;20224;-72
2023/12/03 05:01:34;;;;;;;16.70;7.77;;;;;;;-2.03;100.00;96743.13;5077421;28;20199;-70
2023/12/03 05:04:00;;;;;;;17.87;7.67;;;;;;;-1.94;100.00;96738.25;5076424;28;20675;-70
2023/12/03 05:06:27;;;;;;;14.47;6.70;;;;;;;-1.79;100.00;96742.53;5077716;28;20204;-71
2023/12/03 05:08:53;;;;;;;12.60;6.07;;;;;;;-1.83;100.00;96746.22;5076478;28;20229;-71
2023/12/03 05:11:20;;;;;;;14.73;6.97;;;;;;;-1.77;100.00;96746.69;5077590;28;20207;-70
2023/12/03 05:13:46;;;;;;;15.80;6.30;;;;;;;-1.83;100.00;96748.78;5078035;28;20210;-71
2023/12/03 05:16:14;;;;;;;17.27;7.60;;;;;;;-1.82;100.00;96750.44;5076974;28;20640;-71
2023/12/03 05:18:41;;;;;;;12.87;5.43;;;;;;;-1.79;100.00;96755.44;5076717;28;20247;-70
2023/12/03 05:21:08;;;;;;;15.67;7.27;;;;;;;-1.86;100.00;96763.63;5077224;28;20925;-70
2023/12/03 05:23:35;;;;;;;14.00;6.83;;;;;;;-1.93;100.00;96759.75;5077319;28;20212;-71
2023/12/03 05:26:01;;;;;;;14.67;8.00;;;;;;;-1.82;100.00;96763.34;5076873;28;20643;-70
2023/12/03 05:28:28;;;;;;;11.50;5.70;;;;;;;-2.03;100.00;96764.59;5076534;28;20215;-69
2023/12/03 05:30:54;;;;;;;14.90;7.03;;;;;;;-1.96;100.00;96770.25;5077616;28;20225;-70
2023/12/03 05:33:22;;;;;;;13.00;5.50;;;;;;;-1.70;100.00;96762.63;5076599;28;20210;-71
2023/12/03 05:35:49;;;;;;;12.00;5.80;;;;;;;-1.97;100.00;96774.59;5076834;28;21101;-71
2023/12/03 05:38:15;;;;;;;15.70;5.03;;;;;;;-1.82;100.00;96774.53;5076222;28;20209;-70
2023/12/03 05:40:42;;;;;;;11.97;5.30;;;;;;;-1.82;100.00;96777.09;5077122;28;20206;-70
2023/12/03 05:43:08;;;;;;;9.97;4.20;;;;;;;-1.95;100.00;96777.91;5076060;28;20264;-71
2023/12/03 05:45:35;;;;;;;11.57;5.80;;;;;;;-1.77;100.00;96782.84;5077265;28;20201;-70
2023/12/03 05:48:01;;;;;;;12.10;5.37;;;;;;;-1.75;100.00;96780.16;5075769;28;20694;-70
2023/12/03 05:50:29;;;;;;;9.77;5.43;;;;;;;-1.53;100.00;96780.53;5075969;28;21039;-71
2023/12/03 05:52:56;;;;;;;10.83;5.30;;;;;;;-1.62;100.00;96796.59;5076772;28;20220;-71
2023/12/03 05:55:22;;;;;;;11.00;5.63;;;;;;;-1.74;100.00;96797.31;5076580;28;20205;-70
2023/12/03 05:57:49;;;;;;;11.97;5.73;;;;;;;-1.74;100.00;96792.16;5076119;28;20344;-72
2023/12/03 06:00:16;;;;;;;9.30;4.10;;;;;;;-1.77;100.00;96782.84;5075945;28;20222;-71
2023/12/03 06:02:43;;;;;;;10.33;5.50;;;;;;;-1.76;100.00;96783.66;5076669;28;20225;-70
2023/12/03 06:05:10;;;;;;;9.27;4.57;;;;;;;-1.65;100.00;96782.09;5075567;28;20207;-72
2023/12/03 06:07:37;;;;;;;9.33;4.90;;;;;;;-1.55;100.00;96788.38;5076398;28;20207;-70
2023/12/03 06:10:06;;;;;;;13.37;5.30;;;;;;;-1.57;100.00;96786.81;5075295;28;20835;-70
2023/12/03 06:12:31;;;;;;;15.77;5.17;;;;;;;-1.85;100.00;96789.34;5075942;28;20211;-70
2023/12/03 06:14:58;;;;;;;12.20;5.77;;;;;;;-1.82;100.00;96794.34;5076979;28;20565;-70
2023/12/03 06:17:24;;;;;;;13.87;5.73;;;;;;;-1.97;100.00;96790.09;5075644;28;20210;-70
2023/12/03 06:19:51;;;;;;;10.13;5.07;;;;;;;-2.03;100.00;96799.94;5075548;28;20223;-71
2023/12/03 06:22:17;;;;;;;11.83;4.70;;;;;;;-1.83;100.00;96802.19;5076174;28;20203;-71
2023/12/03 06:24:45;;;;;;;11.43;5.10;;;;;;;-1.81;100.00;96803.75;5076889;28;20213;-71
2023/12/03 06:27:11;;;;;;;9.93;5.60;;;;;;;-1.90;100.00;96806.03;5074575;28;20202;-70
2023/12/03 06:29:38;;;;;;;10.77;5.00;;;;;;;-1.97;100.00;96813.31;5076483;28;20235;-69
2023/12/03 06:32:05;;;;;;;9.67;5.53;;;;;;;-1.83;100.00;96810.78;5075968;28;20305;-69
2023/12/03 06:34:31;;;;;;;11.67;5.93;;;;;;;-1.80;100.00;96816.56;5076188;28;20201;-70
2023/12/03 06:36:59;;;;;;;10.43;4.93;;;;;;;-1.80;100.00;96813.16;5075232;28;20229;-69
2023/12/03 06:39:25;;;;;;;8.03;4.20;;;;;;;-1.77;100.00;96807.81;5075866;28;20232;-70
2023/12/03 06:41:53;;;;;;;10.60;5.40;;;;;;;-1.54;100.00;96820.22;5075271;28;20208;-70
2023/12/03 06:44:20;;;;;;;11.10;5.07;;;;;;;-1.80;100.00;96816.56;5075185;28;20217;-70
2023/12/03 06:46:46;;;;;;;12.50;5.13;;;;;;;-1.91;100.00;96820.69;5076258;28;20238;-69
2023/12/03 06:49:13;;;;;;;9.90;4.83;;;;;;;-1.83;100.00;96828.84;5074835;28;20708;-70
2023/12/03 06:51:39;;;;;;;12.90;5.47;;;;;;;-1.84;100.00;96826.38;5075996;28;20203;-70
2023/12/03 06:54:06;;;;;;;13.53;5.67;;;;;;;-1.83;100.00;96828.84;5076026;28;20224;-70
2023/12/03 06:56:33;;;;;;;11.30;5.80;;;;;;;-1.84;100.00;96829.75;5075189;28;20210;-70
2023/12/03 06:59:01;;;;;;;14.83;7.03;;;;;;;-1.81;100.00;96827.00;5075145;28;20329;-69
2023/12/03 07:01:27;;;;;;;13.33;7.17;;;;;;;-1.94;100.00;96833.78;5075470;28;20700;-70
2023/12/03 07:03:54;;;;;;;14.13;6.40;;;;;;;-1.99;100.00;96838.38;5075194;28;20213;-71
2023/12/03 07:06:20;;;;;;;9.70;4.93;;;;;;;-1.91;100.00;96832.78;5076916;28;20767;-70
2023/12/03 07:08:47;;;;;;;11.27;5.17;;;;;;;-1.86;100.00;96836.75;5079985;28;20234;-70
2023/12/03 07:11:13;;;;;;;11.57;5.50;;;;;;;-1.88;100.00;96832.59;5079059;28;20220;-70
2023/12/03 07:13:40;;;;;;;11.77;5.43;;;;;;;-2.03;100.00;96844.66;5079716;28;20301;-70
2023/12/03 07:16:10;;;;;;;11.57;5.30;;;;;;;-1.83;100.00;96846.09;5078511;28;20633;-70
2023/12/03 07:18:37;;;;;;;21.80;8.07;;;;;;;-1.88;100.00;96851.53;5078915;28;20316;-69
2023/12/03 07:21:03;;;;;;;105.63;22.03;;;;;;;-1.88;100.00;96845.50;5079197;28;20216;-70
2023/12/03 07:23:30;;;;;;;72.47;18.03;;;;;;;-1.97;100.00;96846.88;5079332;28;20591;-70
2023/12/03 07:25:56;;;;;;;36.37;10.07;;;;;;;-1.96;100.00;96850.28;5079388;28;20212;-70
2023/12/03 07:28:23;;;;;;;46.00;13.70;;;;;;;-2.08;100.00;96848.41;5078150;28;20206;-69
2023/12/03 07:30:49;;;;;;;36.87;11.63;;;;;;;-2.07;100.00;96856.06;5079687;28;20228;-70
2023/12/03 07:33:17;;;;;;;35.30;12.20;;;;;;;-1.88;100.00;96855.84;5078977;28;20205;-70
2023/12/03 07:35:43;;;;;;;30.80;10.37;;;;;;;-2.04;100.00;96855.06;5080090;28;20205;-70
2023/12/03 07:38:10;;;;;;;42.13;14.40;;;;;;;-1.98;100.00;96860.72;5078543;28;20228;-70
2023/12/03 07:40:36;;;;;;;36.30;12.37;;;;;;;-2.12;100.00;96872.75;5079193;28;20220;-70
2023/12/03 07:43:03;;;;;;;22.43;8.53;;;;;;;-2.27;100.00;96864.09;5078582;28;20206;-70
2023/12/03 07:45:29;;;;;;;13.87;5.63;;;;;;;-1.54;100.00;96866.72;5078782;28;20220;-71
2023/12/03 07:47:56;;;;;;;22.13;8.60;;;;;;;-1.63;100.00;96868.09;5078398;28;20211;-71
2023/12/03 07:50:24;;;;;;;24.67;8.03;;;;;;;-1.63;100.00;96878.44;5079399;28;20735;-70
2023/12/03 07:52:50;;;;;;;21.87;8.60;;;;;;;-1.77;100.00;96870.66;5078458;28;20244;-70
2023/12/03 07:55:16;;;;;;;27.40;9.80;;;;;;;-1.80;100.00;96867.41;5078194;28;20209;-70
2023/12/03 07:57:43;;;;;;;33.60;14.37;;;;;;;-1.84;100.00;96871.09;5078189;28;20202;-70
2023/12/03 08:00:10;;;;;;;38.70;13.07;;;;;;;-1.79;100.00;96866.50;5078866;28;20225;-70
2023/12/03 08:02:37;;;;;;;35.27;13.30;;;;;;;-1.85;100.00;96866.00;5078423;28;20206;-70
2023/12/03 08:05:05;;;;;;;41.50;13.27;;;;;;;-1.70;100.00;96871.94;5078774;28;20200;-71
2023/12/03 08:07:33;;;;;;;34.07;14.13;;;;;;;-1.71;100.00;96874.63;5078362;28;20225;-71
2023/12/03 08:09:59;;;;;;;44.43;14.00;;;;;;;-1.81;100.00;96866.59;5078182;28;20229;-70
2023/12/03 08:12:26;;;;;;;44.63;16.37;;;;;;;-1.70;100.00;96869.38;5078658;28;20207;-71
2023/12/03 08:14:52;;;;;;;60.77;17.60;;;;;;;-1.69;100.00;96878.78;5078734;28;20937;-71
2023/12/03 08:17:19;;;;;;;34.93;13.07;;;;;;;-1.74;100.00;96870.47;5077237;28;20234;-70
2023/12/03 08:19:45;;;;;;;53.27;16.97;;;;;;;-1.77;100.00;96874.97;5079079;28;20220;-70
2023/12/03 08:22:12;;;;;;;72.97;19.97;;;;;;;-1.81;100.00;96878.66;5076733;28;20695;-70
2023/12/03 08:24:40;;;;;;;63.73;22.30;;;;;;;-1.54;100.00;96879.63;5076201;28;20546;-70
2023/12/03 08:27:06;;;;;;;28.73;13.23;;;;;;;-1.90;100.00;96881.75;5076850;28;20578;-72
2023/12/03 08:29:33;;;;;;;28.13;10.03;;;;;;;-1.86;100.00;96880.66;5078124;28;20586;-71
2023/12/03 08:31:59;;;;;;;32.23;10.53;;;;;;;-1.95;100.00;96883.75;5077827;28;20230;-70
2023/12/03 08:34:28;;;;;;;26.83;11.20;;;;;;;-1.81;100.00;96878.66;5077148;28;20200;-70
2023/12/03 08:36:55;;;;;;;21.07;10.30;;;;;;;-2.02;100.00;96879.88;5077911;28;20260;-69
2023/12/03 08:39:21;;;;;;;21.67;9.77;;;;;;;-2.08;100.00;96884.56;5077410;28;20223;-69
2023/12/03 08:41:49;;;;;;;35.70;12.23;;;;;;;-1.75;100.00;96878.31;5078682;28;20571;-70
2023/12/03 08:44:15;;;;;;;28.53;9.87;;;;;;;-1.55;100.00;96875.41;5078082;28;20213;-70
2023/12/03 08:46:42;;;;;;;18.00;8.37;;;;;;;-1.45;100.00;96876.53;5078120;28;20200;-69
2023/12/03 08:49:08;;;;;;;22.43;9.83;;;;;;;-1.47;100.00;96884.38;5077449;28;20225;-70
2023/12/03 08:51:35;;;;;;;25.73;11.37;;;;;;;-1.27;100.00;96878.88;5077961;28;20227;-70
2023/12/03 08:54:01;;;;;;;24.97;7.87;;;;;;;-1.53;100.00;96883.91;5077314;28;20213;-69
2023/12/03 08:56:28;;;;;;;28.10;9.97;;;;;;;-1.41;100.00;96883.16;5076863;28;20214;-70
2023/12/03 08:58:55;;;;;;;21.87;7.87;;;;;;;-1.08;100.00;96877.69;5076595;28;20220;-70
2023/12/03 09:01:22;;;;;;;17.57;7.43;;;;;;;-1.21;100.00;96881.06;5077252;28;20193;-71
2023/12/03 09:03:49;;;;;;;19.07;8.07;;;;;;;-1.22;100.00;96882.84;5078112;28;20199;-69
2023/12/03 09:06:17;;;;;;;18.83;8.57;;;;;;;-1.18;100.00;96886.91;5076839;28;20668;-70
2023/12/03 09:08:44;;;;;;;16.60;8.40;;;;;;;-0.95;100.00;96878.59;5077582;28;20218;-70
2023/12/03 09:11:11;;;;;;;16.97;7.80;;;;;;;-1.17;100.00;96883.41;5077323;28;20231;-69
2023/12/03 09:13:37;;;;;;;20.07;7.30;;;;;;;-1.15;100.00;96891.06;5077325;28;20550;-70
2023/12/03 09:16:06;;;;;;;12.00;5.67;;;;;;;-1.04;100.00;96888.69;5077240;28;20234;-70
2023/12/03 09:18:38;;;;;;;12.97;6.37;;;;;;;-1.46;100.00;96898.13;5077000;28;20617;-71
2023/12/03 09:21:06;;;;;;;10.63;5.70;;;;;;;-1.08;100.00;96897.56;5076911;28;20318;-70
2023/12/03 09:23:33;;;;;;;13.77;5.67;;;;;;;-1.49;100.00;96901.72;5077346;28;20205;-70
2023/12/03 09:26:00;;;;;;;12.43;5.77;;;;;;;-1.27;100.00;96906.47;5076811;28;20211;-70
2023/12/03 09:28:29;;;;;;;15.40;6.40;;;;;;;-1.22;100.00;96908.69;5076180;28;20201;-71
2023/12/03 09:30:56;;;;;;;16.60;6.37;;;;;;;-1.13;100.00;96905.56;5077102;28;20278;-70
2023/12/03 09:33:26;;;;;;;11.03;6.03;;;;;;;-1.16;100.00;96912.66;5076032;28;20212;-70
2023/12/03 09:35:52;;;;;;;25.47;9.30;;;;;;;-1.20;100.00;96909.44;5076878;28;20209;-70
2023/12/03 09:38:19;;;;;;;15.40;6.60;;;;;;;-1.18;100.00;96907.59;5075279;28;21121;-70
2023/12/03 09:40:47;;;;;;;19.57;7.40;;;;;;;-0.96;100.00;96901.97;5076761;28;20214;-70
2023/12/03 09:43:17;;;;;;;66.87;22.93;;;;;;;-0.74;100.00;96895.41;5076771;28;20816;-71
2023/12/03 09:45:45;;;;;;;165.17;50.90;;;;;;;-1.05;100.00;96903.34;5076217;28;20201;-70
2023/12/03 09:48:14;;;;;;;40.57;16.20;;;;;;;-0.68;100.00;96891.63;5076055;28;20227;-69
2023/12/03 09:50:45;;;;;;;21.83;8.97;;;;;;;-0.79;100.00;96900.03;5076971;28;20708;-70
2023/12/03 09:53:12;;;;;;;19.87;8.27;;;;;;;-0.47;100.00;96897.13;5076113;28;20203;-70
2023/12/03 09:55:41;;;;;;;26.20;10.43;;;;;;;-0.50;100.00;96896.50;5076685;28;20209;-70
2023/12/03 09:58:10;;;;;;;18.00;7.50;;;;;;;-0.43;100.00;96898.59;5075600;28;21003;-71
2023/12/03 10:00:38;;;;;;;11.30;5.57;;;;;;;-0.53;100.00;96896.69;5075701;28;20226;-71
2023/12/03 10:03:05;;;;;;;16.33;6.77;;;;;;;-0.87;100.00;96906.59;5076087;28;20202;-70
2023/12/03 10:05:32;;;;;;;14.87;6.47;;;;;;;-0.79;100.00;96909.53;5075627;28;20205;-70
2023/12/03 10:08:02;;;;;;;12.03;5.90;;;;;;;-0.66;100.00;96911.31;5076219;28;20206;-70
2023/12/03 10:10:30;;;;;;;11.53;5.43;;;;;;;-0.67;100.00;96914.81;5076246;28;20232;-72
2023/12/03 10:12:58;;;;;;;12.13;6.00;;;;;;;-0.50;100.00;96909.44;5075826;28;20326;-71
2023/12/03 10:15:25;;;;;;;12.57;6.07;;;;;;;-0.38;100.00;96911.25;5076008;28;20213;-71
2023/12/03 10:17:52;;;;;;;25.07;9.53;;;;;;;-0.42;100.00;96908.03;5076266;28;20681;-71
2023/12/03 10:20:27;;;;;;;16.57;7.63;;;;;;;0.27;100.00;96901.81;5075442;28;20225;-72
2023/12/03 10:22:55;;;;;;;16.90;7.17;;;;;;;0.34;100.00;96904.84;5077086;28;20203;-73
2023/12/03 10:25:30;;;;;;;13.07;5.87;;;;;;;0.55;100.00;96912.06;5075918;28;20200;-71
2023/12/03 10:27:58;;;;;;;14.97;7.37;;;;;;;0.00;100.00;96903.59;5074965;28;20200;-72
2023/12/03 10:30:25;;;;;;;13.20;5.27;;;;;;;0.34;100.00;96895.28;5075767;28;20242;-71
2023/12/03 10:32:51;;;;;;;11.60;5.20;;;;;;;0.33;100.00;96891.06;5076211;28;20200;-71
2023/12/03 10:35:20;;;;;;;17.27;6.30;;;;;;;0.53;100.00;96893.16;5075053;28;20229;-72
2023/12/03 10:37:47;;;;;;;10.57;4.93;;;;;;;0.37;100.00;96902.03;5075602;28;20261;-71
2023/12/03 10:40:13;;;;;;;10.67;5.23;;;;;;;0.12;100.00;96894.19;5075296;28;20729;-72
2023/12/03 10:42:41;;;;;;;12.93;6.53;;;;;;;0.55;100.00;96899.09;5076054;28;20203;-71
2023/12/03 10:45:10;;;;;;;13.07;6.27;;;;;;;0.59;100.00;96888.41;5075735;28;20883;-72
2023/12/03 10:47:37;;;;;;;17.73;7.03;;;;;;;0.68;100.00;96885.19;5075576;28;20579;-71
2023/12/03 10:50:06;;;;;;;13.07;6.03;;;;;;;0.36;100.00;96887.44;5075368;28;20234;-72
2023/12/03 10:52:33;;;;;;;12.27;6.07;;;;;;;0.90;100.00;96889.78;5075684;28;20257;-71
2023/12/03 10:55:00;;;;;;;12.03;5.77;;;;;;;0.82;100.00;96889.47;5075953;28;20204;-73
2023/12/03 10:57:29;;;;;;;15.47;5.67;;;;;;;1.33;100.00;96882.38;5075144;28;20204;-70
2023/12/03 11:00:05;;;;;;;14.87;6.13;;;;;;;1.39;100.00;96876.78;5075742;28;20223;-72
2023/12/03 11:02:39;;;;;;;12.13;5.57;;;;;;;0.72;100.00;96883.22;5075050;28;20223;-71
2023/12/03 11:05:10;;;;;;;20.67;7.27;;;;;;;0.25;100.00;96880.34;5074952;28;20200;-71
2023/12/03 11:07:38;;;;;;;19.57;8.50;;;;;;;0.03;100.00;96879.25;5075204;28;20207;-71
2023/12/03 11:10:06;;;;;;;25.87;8.30;;;;;;;0.59;100.00;96877.22;5075655;28;20219;-70
2023/12/03 11:12:34;;;;;;;11.80;5.97;;;;;;;0.81;100.00;96872.25;5075038;28;20221;-71
2023/12/03 11:15:03;;;;;;;12.27;5.20;;;;;;;0.38;100.00;96868.25;5075688;28;20215;-71